sensor_id;sensor_type;location;lat;lon;timestamp;P1;durP1;ratioP1;P2;durP2;ratioP2
4214;SDS011;2121;48.062;7.850;2022-09-01T00:01:42;8.47;;;7.30;;
4214;SDS011;2121;48.062;7.850;2022-09-01T00:04:14;10.90;;;7.13;;
4214;SDS011;2121;48.062;7.850;2022-09-01T00:06:45;9.83;;;7.47;;
4214;SDS011;2121;48.062;7.850;2022-09-01T00:09:14;7.30;;;6.60;;
4214;SDS011;2121;48.062;7.850;2022-09-01T00:11:44;9.30;;;7.30;;
4214;SDS011;2121;48.062;7.850;2022-09-01T00:14:14;8.17;;;7.37;;
4214;SDS011;2121;48.062;7.850;2022-09-01T00:16:40;8.10;;;7.30;;
4214;SDS011;2121;48.062;7.850;2022-09-01T00:19:06;8.40;;;7.40;;
4214;SDS011;2121;48.062;7.850;2022-09-01T00:21:33;8.30;;;7.30;;
4214;SDS011;2121;48.062;7.850;2022-09-01T00:24:02;8.40;;;6.53;;
4214;SDS011;2121;48.062;7.850;2022-09-01T00:26:30;12.43;;;8.30;;
4214;SDS011;2121;48.062;7.850;2022-09-01T00:28:56;9.47;;;8.47;;
4214;SDS011;2121;48.062;7.850;2022-09-01T00:31:22;10.40;;;8.23;;
4214;SDS011;2121;48.062;7.850;2022-09-01T00:33:49;10.07;;;7.80;;
4214;SDS011;2121;48.062;7.850;2022-09-01T00:36:16;10.20;;;7.80;;
4214;SDS011;2121;48.062;7.850;2022-09-01T00:38:43;8.90;;;8.00;;
4214;SDS011;2121;48.062;7.850;2022-09-01T00:41:10;9.07;;;8.23;;
4214;SDS011;2121;48.062;7.850;2022-09-01T00:43:47;8.93;;;8.13;;
4214;SDS011;2121;48.062;7.850;2022-09-01T00:46:22;13.27;;;8.23;;
4214;SDS011;2121;48.062;7.850;2022-09-01T00:52:01;8.30;;;7.00;;
4214;SDS011;2121;48.062;7.850;2022-09-01T00:54:35;11.20;;;8.00;;
4214;SDS011;2121;48.062;7.850;2022-09-01T00:57:06;8.50;;;7.00;;
4214;SDS011;2121;48.062;7.850;2022-09-01T00:59:34;10.40;;;7.00;;
4214;SDS011;2121;48.062;7.850;2022-09-01T01:02:03;13.20;;;8.17;;
4214;SDS011;2121;48.062;7.850;2022-09-01T01:04:29;10.37;;;7.60;;
4214;SDS011;2121;48.062;7.850;2022-09-01T01:06:56;11.60;;;6.80;;
4214;SDS011;2121;48.062;7.850;2022-09-01T01:09:26;8.60;;;7.70;;
4214;SDS011;2121;48.062;7.850;2022-09-01T01:11:59;13.53;;;7.40;;
4214;SDS011;2121;48.062;7.850;2022-09-01T01:14:27;9.23;;;7.20;;
4214;SDS011;2121;48.062;7.850;2022-09-01T01:16:55;9.17;;;8.27;;
4214;SDS011;2121;48.062;7.850;2022-09-01T01:28:18;9.93;;;7.90;;
4214;SDS011;2121;48.062;7.850;2022-09-01T01:30:56;9.70;;;7.30;;
4214;SDS011;2121;48.062;7.850;2022-09-01T01:33:28;11.53;;;7.77;;
4214;SDS011;2121;48.062;7.850;2022-09-01T01:35:58;9.40;;;8.40;;
4214;SDS011;2121;48.062;7.850;2022-09-01T01:38:26;8.93;;;7.73;;
4214;SDS011;2121;48.062;7.850;2022-09-01T01:40:53;16.80;;;8.60;;
4214;SDS011;2121;48.062;7.850;2022-09-01T01:43:20;20.23;;;10.00;;
4214;SDS011;2121;48.062;7.850;2022-09-01T01:45:49;9.30;;;7.93;;
4214;SDS011;2121;48.062;7.850;2022-09-01T01:48:19;13.50;;;8.50;;
4214;SDS011;2121;48.062;7.850;2022-09-01T01:50:50;8.60;;;7.67;;
4214;SDS011;2121;48.062;7.850;2022-09-01T01:53:18;8.80;;;7.33;;
4214;SDS011;2121;48.062;7.850;2022-09-01T01:55:45;9.50;;;7.67;;
4214;SDS011;2121;48.062;7.850;2022-09-01T01:58:15;12.87;;;8.40;;
4214;SDS011;2121;48.062;7.850;2022-09-01T02:00:43;8.60;;;7.67;;
4214;SDS011;2121;48.062;7.850;2022-09-01T02:03:11;9.50;;;8.30;;
4214;SDS011;2121;48.062;7.850;2022-09-01T02:05:44;11.50;;;8.73;;
4214;SDS011;2121;48.062;7.850;2022-09-01T02:08:12;10.40;;;8.50;;
4214;SDS011;2121;48.062;7.850;2022-09-01T02:10:43;11.73;;;7.23;;
4214;SDS011;2121;48.062;7.850;2022-09-01T02:13:13;12.30;;;8.77;;
4214;SDS011;2121;48.062;7.850;2022-09-01T02:15:43;10.90;;;7.90;;
4214;SDS011;2121;48.062;7.850;2022-09-01T02:18:14;10.87;;;8.37;;
4214;SDS011;2121;48.062;7.850;2022-09-01T02:20:46;10.87;;;8.37;;
4214;SDS011;2121;48.062;7.850;2022-09-01T02:23:14;9.10;;;7.63;;
4214;SDS011;2121;48.062;7.850;2022-09-01T02:25:47;14.80;;;7.90;;
4214;SDS011;2121;48.062;7.850;2022-09-01T02:28:17;9.23;;;7.83;;
4214;SDS011;2121;48.062;7.850;2022-09-01T02:30:44;9.70;;;8.70;;
4214;SDS011;2121;48.062;7.850;2022-09-01T02:33:16;8.53;;;7.67;;
4214;SDS011;2121;48.062;7.850;2022-09-01T02:35:51;11.70;;;8.40;;
4214;SDS011;2121;48.062;7.850;2022-09-01T02:38:24;8.87;;;8.00;;
4214;SDS011;2121;48.062;7.850;2022-09-01T02:40:53;12.00;;;9.20;;
4214;SDS011;2121;48.062;7.850;2022-09-01T02:43:21;12.90;;;9.13;;
4214;SDS011;2121;48.062;7.850;2022-09-01T02:45:48;12.03;;;10.07;;
4214;SDS011;2121;48.062;7.850;2022-09-01T02:48:29;8.90;;;8.07;;
4214;SDS011;2121;48.062;7.850;2022-09-01T02:51:08;7.80;;;7.10;;
4214;SDS011;2121;48.062;7.850;2022-09-01T02:53:38;9.20;;;7.90;;
4214;SDS011;2121;48.062;7.850;2022-09-01T02:56:07;9.27;;;8.20;;
4214;SDS011;2121;48.062;7.850;2022-09-01T02:58:38;8.20;;;7.10;;
4214;SDS011;2121;48.062;7.850;2022-09-01T03:01:17;9.73;;;7.90;;
4214;SDS011;2121;48.062;7.850;2022-09-01T03:03:51;14.80;;;8.13;;
4214;SDS011;2121;48.062;7.850;2022-09-01T03:06:20;11.83;;;8.90;;
4214;SDS011;2121;48.062;7.850;2022-09-01T03:08:48;9.20;;;7.33;;
4214;SDS011;2121;48.062;7.850;2022-09-01T03:11:19;10.63;;;8.27;;
4214;SDS011;2121;48.062;7.850;2022-09-01T03:13:48;9.40;;;8.50;;
4214;SDS011;2121;48.062;7.850;2022-09-01T03:16:14;9.80;;;8.80;;
4214;SDS011;2121;48.062;7.850;2022-09-01T03:18:40;14.77;;;9.40;;
4214;SDS011;2121;48.062;7.850;2022-09-01T03:21:09;15.73;;;11.53;;
4214;SDS011;2121;48.062;7.850;2022-09-01T03:23:40;14.23;;;9.93;;
4214;SDS011;2121;48.062;7.850;2022-09-01T03:26:06;9.57;;;8.53;;
4214;SDS011;2121;48.062;7.850;2022-09-01T03:28:32;12.37;;;8.60;;
4214;SDS011;2121;48.062;7.850;2022-09-01T03:30:58;9.17;;;8.27;;
4214;SDS011;2121;48.062;7.850;2022-09-01T03:33:25;8.70;;;7.80;;
4214;SDS011;2121;48.062;7.850;2022-09-01T03:35:52;10.80;;;8.40;;
4214;SDS011;2121;48.062;7.850;2022-09-01T03:38:19;8.93;;;7.87;;
4214;SDS011;2121;48.062;7.850;2022-09-01T03:40:48;10.80;;;8.00;;
4214;SDS011;2121;48.062;7.850;2022-09-01T03:43:17;9.80;;;8.10;;
4214;SDS011;2121;48.062;7.850;2022-09-01T03:45:47;11.70;;;8.90;;
4214;SDS011;2121;48.062;7.850;2022-09-01T03:48:13;11.47;;;8.10;;
4214;SDS011;2121;48.062;7.850;2022-09-01T03:50:41;9.50;;;8.03;;
4214;SDS011;2121;48.062;7.850;2022-09-01T03:53:14;9.50;;;8.07;;
4214;SDS011;2121;48.062;7.850;2022-09-01T03:55:44;10.17;;;9.07;;
4214;SDS011;2121;48.062;7.850;2022-09-01T03:58:13;10.60;;;9.50;;
4214;SDS011;2121;48.062;7.850;2022-09-01T04:00:44;10.60;;;8.27;;
4214;SDS011;2121;48.062;7.850;2022-09-01T04:03:15;9.20;;;6.90;;
4214;SDS011;2121;48.062;7.850;2022-09-01T04:05:46;12.60;;;9.23;;
4214;SDS011;2121;48.062;7.850;2022-09-01T04:08:13;9.27;;;8.37;;
4214;SDS011;2121;48.062;7.850;2022-09-01T04:10:44;9.63;;;8.50;;
4214;SDS011;2121;48.062;7.850;2022-09-01T04:13:16;9.97;;;8.23;;
4214;SDS011;2121;48.062;7.850;2022-09-01T04:15:54;8.73;;;7.87;;
4214;SDS011;2121;48.062;7.850;2022-09-01T04:18:22;15.40;;;8.77;;
4214;SDS011;2121;48.062;7.850;2022-09-01T04:20:50;9.67;;;8.67;;
4214;SDS011;2121;48.062;7.850;2022-09-01T04:26:01;10.27;;;9.17;;
4214;SDS011;2121;48.062;7.850;2022-09-01T04:28:35;10.60;;;9.00;;
4214;SDS011;2121;48.062;7.850;2022-09-01T04:31:10;9.83;;;8.90;;
4214;SDS011;2121;48.062;7.850;2022-09-01T04:33:41;13.00;;;10.13;;
4214;SDS011;2121;48.062;7.850;2022-09-01T04:39:01;11.97;;;10.63;;
4214;SDS011;2121;48.062;7.850;2022-09-01T04:41:33;20.33;;;13.70;;
4214;SDS011;2121;48.062;7.850;2022-09-01T04:44:03;31.90;;;16.10;;
4214;SDS011;2121;48.062;7.850;2022-09-01T04:46:31;26.07;;;15.37;;
4214;SDS011;2121;48.062;7.850;2022-09-01T04:49:04;29.83;;;17.27;;
4214;SDS011;2121;48.062;7.850;2022-09-01T04:51:34;27.30;;;15.43;;
4214;SDS011;2121;48.062;7.850;2022-09-01T04:54:07;38.77;;;14.27;;
4214;SDS011;2121;48.062;7.850;2022-09-01T04:56:36;24.70;;;15.43;;
4214;SDS011;2121;48.062;7.850;2022-09-01T04:59:03;31.70;;;17.70;;
4214;SDS011;2121;48.062;7.850;2022-09-01T05:01:31;60.47;;;19.07;;
4214;SDS011;2121;48.062;7.850;2022-09-01T05:04:08;39.00;;;15.27;;
4214;SDS011;2121;48.062;7.850;2022-09-01T05:06:50;25.60;;;15.47;;
4214;SDS011;2121;48.062;7.850;2022-09-01T05:09:25;37.80;;;15.93;;
4214;SDS011;2121;48.062;7.850;2022-09-01T05:12:03;33.00;;;16.73;;
4214;SDS011;2121;48.062;7.850;2022-09-01T05:14:45;44.13;;;17.50;;
4214;SDS011;2121;48.062;7.850;2022-09-01T05:17:12;31.00;;;18.57;;
4214;SDS011;2121;48.062;7.850;2022-09-01T05:19:40;37.00;;;18.60;;
4214;SDS011;2121;48.062;7.850;2022-09-01T05:22:11;46.00;;;20.77;;
4214;SDS011;2121;48.062;7.850;2022-09-01T05:24:39;41.83;;;18.73;;
4214;SDS011;2121;48.062;7.850;2022-09-01T05:27:05;55.40;;;20.80;;
4214;SDS011;2121;48.062;7.850;2022-09-01T05:29:32;22.43;;;16.27;;
4214;SDS011;2121;48.062;7.850;2022-09-01T05:32:02;40.77;;;17.77;;
4214;SDS011;2121;48.062;7.850;2022-09-01T05:34:34;35.23;;;18.63;;
4214;SDS011;2121;48.062;7.850;2022-09-01T05:37:02;21.40;;;18.30;;
4214;SDS011;2121;48.062;7.850;2022-09-01T05:39:30;78.73;;;20.90;;
4214;SDS011;2121;48.062;7.850;2022-09-01T05:41:57;26.07;;;17.13;;
4214;SDS011;2121;48.062;7.850;2022-09-01T05:44:23;63.13;;;19.60;;
4214;SDS011;2121;48.062;7.850;2022-09-01T05:46:49;20.80;;;16.90;;
4214;SDS011;2121;48.062;7.850;2022-09-01T05:49:17;29.70;;;19.33;;
4214;SDS011;2121;48.062;7.850;2022-09-01T05:51:47;27.17;;;19.13;;
4214;SDS011;2121;48.062;7.850;2022-09-01T05:54:16;37.60;;;18.73;;
4214;SDS011;2121;48.062;7.850;2022-09-01T05:56:45;37.30;;;18.50;;
4214;SDS011;2121;48.062;7.850;2022-09-01T05:59:13;53.13;;;19.60;;
4214;SDS011;2121;48.062;7.850;2022-09-01T06:01:39;41.00;;;19.00;;
4214;SDS011;2121;48.062;7.850;2022-09-01T06:04:06;23.43;;;18.37;;
4214;SDS011;2121;48.062;7.850;2022-09-01T06:06:44;33.10;;;18.30;;
4214;SDS011;2121;48.062;7.850;2022-09-01T06:09:13;32.73;;;20.00;;
4214;SDS011;2121;48.062;7.850;2022-09-01T06:11:42;41.37;;;20.13;;
4214;SDS011;2121;48.062;7.850;2022-09-01T06:14:11;32.87;;;20.90;;
4214;SDS011;2121;48.062;7.850;2022-09-01T06:16:39;25.40;;;20.13;;
4214;SDS011;2121;48.062;7.850;2022-09-01T06:19:06;25.67;;;21.13;;
4214;SDS011;2121;48.062;7.850;2022-09-01T06:21:32;26.00;;;20.37;;
4214;SDS011;2121;48.062;7.850;2022-09-01T06:23:58;29.97;;;19.70;;
4214;SDS011;2121;48.062;7.850;2022-09-01T06:26:29;29.83;;;21.23;;
4214;SDS011;2121;48.062;7.850;2022-09-01T06:29:00;24.57;;;19.47;;
4214;SDS011;2121;48.062;7.850;2022-09-01T06:31:31;24.90;;;19.10;;
4214;SDS011;2121;48.062;7.850;2022-09-01T06:34:00;26.53;;;17.77;;
4214;SDS011;2121;48.062;7.850;2022-09-01T06:36:27;25.03;;;18.90;;
4214;SDS011;2121;48.062;7.850;2022-09-01T06:38:56;22.90;;;18.50;;
4214;SDS011;2121;48.062;7.850;2022-09-01T06:41:25;20.90;;;18.27;;
4214;SDS011;2121;48.062;7.850;2022-09-01T06:43:52;20.83;;;17.07;;
4214;SDS011;2121;48.062;7.850;2022-09-01T06:46:19;23.37;;;17.50;;
4214;SDS011;2121;48.062;7.850;2022-09-01T06:48:47;23.27;;;17.03;;
4214;SDS011;2121;48.062;7.850;2022-09-01T06:51:18;22.17;;;16.50;;
4214;SDS011;2121;48.062;7.850;2022-09-01T06:53:46;23.03;;;17.33;;
4214;SDS011;2121;48.062;7.850;2022-09-01T06:56:17;23.60;;;17.87;;
4214;SDS011;2121;48.062;7.850;2022-09-01T06:58:43;18.70;;;16.13;;
4214;SDS011;2121;48.062;7.850;2022-09-01T07:01:12;21.00;;;16.10;;
4214;SDS011;2121;48.062;7.850;2022-09-01T07:03:44;21.83;;;16.20;;
4214;SDS011;2121;48.062;7.850;2022-09-01T07:06:13;18.07;;;16.10;;
4214;SDS011;2121;48.062;7.850;2022-09-01T07:08:39;20.73;;;14.63;;
4214;SDS011;2121;48.062;7.850;2022-09-01T07:11:15;20.97;;;15.30;;
4214;SDS011;2121;48.062;7.850;2022-09-01T07:13:52;21.60;;;16.20;;
4214;SDS011;2121;48.062;7.850;2022-09-01T07:16:22;19.13;;;16.43;;
4214;SDS011;2121;48.062;7.850;2022-09-01T07:18:51;19.30;;;16.30;;
4214;SDS011;2121;48.062;7.850;2022-09-01T07:21:24;18.20;;;14.33;;
4214;SDS011;2121;48.062;7.850;2022-09-01T07:23:51;18.80;;;15.37;;
4214;SDS011;2121;48.062;7.850;2022-09-01T07:26:17;18.37;;;14.70;;
4214;SDS011;2121;48.062;7.850;2022-09-01T07:28:45;18.03;;;14.63;;
4214;SDS011;2121;48.062;7.850;2022-09-01T07:33:57;18.90;;;15.30;;
4214;SDS011;2121;48.062;7.850;2022-09-01T07:36:25;16.77;;;14.33;;
4214;SDS011;2121;48.062;7.850;2022-09-01T07:38:51;15.73;;;13.30;;
4214;SDS011;2121;48.062;7.850;2022-09-01T07:41:21;15.93;;;13.57;;
4214;SDS011;2121;48.062;7.850;2022-09-01T07:43:49;15.40;;;13.47;;
4214;SDS011;2121;48.062;7.850;2022-09-01T07:46:16;17.90;;;14.70;;
4214;SDS011;2121;48.062;7.850;2022-09-01T07:48:44;18.80;;;13.47;;
4214;SDS011;2121;48.062;7.850;2022-09-01T07:51:13;15.23;;;12.73;;
4214;SDS011;2121;48.062;7.850;2022-09-01T07:53:43;18.50;;;12.90;;
4214;SDS011;2121;48.062;7.850;2022-09-01T07:56:12;17.43;;;12.47;;
4214;SDS011;2121;48.062;7.850;2022-09-01T07:58:43;15.87;;;12.60;;
4214;SDS011;2121;48.062;7.850;2022-09-01T08:01:11;13.80;;;11.53;;
4214;SDS011;2121;48.062;7.850;2022-09-01T08:03:42;18.90;;;12.50;;
4214;SDS011;2121;48.062;7.850;2022-09-01T08:06:11;13.57;;;10.47;;
4214;SDS011;2121;48.062;7.850;2022-09-01T08:08:39;12.60;;;10.53;;
4214;SDS011;2121;48.062;7.850;2022-09-01T08:11:06;10.57;;;8.77;;
4214;SDS011;2121;48.062;7.850;2022-09-01T08:13:34;14.47;;;10.10;;
4214;SDS011;2121;48.062;7.850;2022-09-01T08:16:04;9.60;;;8.50;;
4214;SDS011;2121;48.062;7.850;2022-09-01T08:18:30;11.27;;;8.80;;
4214;SDS011;2121;48.062;7.850;2022-09-01T08:20:56;16.63;;;9.33;;
4214;SDS011;2121;48.062;7.850;2022-09-01T08:23:22;10.20;;;8.27;;
4214;SDS011;2121;48.062;7.850;2022-09-01T08:25:50;6.93;;;6.23;;
4214;SDS011;2121;48.062;7.850;2022-09-01T08:28:18;8.07;;;6.83;;
4214;SDS011;2121;48.062;7.850;2022-09-01T08:30:45;9.00;;;7.30;;
4214;SDS011;2121;48.062;7.850;2022-09-01T08:33:12;9.00;;;7.87;;
4214;SDS011;2121;48.062;7.850;2022-09-01T08:35:40;8.17;;;7.37;;
4214;SDS011;2121;48.062;7.850;2022-09-01T08:38:08;9.27;;;6.90;;
4214;SDS011;2121;48.062;7.850;2022-09-01T08:40:35;6.47;;;5.87;;
4214;SDS011;2121;48.062;7.850;2022-09-01T08:46:33;7.33;;;6.73;;
4214;SDS011;2121;48.062;7.850;2022-09-01T08:51:39;6.27;;;5.67;;
4214;SDS011;2121;48.062;7.850;2022-09-01T08:56:54;6.80;;;6.10;;
4214;SDS011;2121;48.062;7.850;2022-09-01T08:59:26;6.40;;;5.50;;
4214;SDS011;2121;48.062;7.850;2022-09-01T09:09:51;6.87;;;6.27;;
4214;SDS011;2121;48.062;7.850;2022-09-01T09:12:38;9.80;;;7.23;;
4214;SDS011;2121;48.062;7.850;2022-09-01T09:18:16;7.03;;;6.43;;
4214;SDS011;2121;48.062;7.850;2022-09-01T09:20:52;8.33;;;6.80;;
4214;SDS011;2121;48.062;7.850;2022-09-01T09:23:23;7.70;;;6.93;;
4214;SDS011;2121;48.062;7.850;2022-09-01T09:25:57;7.47;;;6.70;;
4214;SDS011;2121;48.062;7.850;2022-09-01T09:28:23;8.13;;;7.23;;
4214;SDS011;2121;48.062;7.850;2022-09-01T09:30:49;7.00;;;5.90;;
4214;SDS011;2121;48.062;7.850;2022-09-01T09:36:16;8.77;;;6.00;;
4214;SDS011;2121;48.062;7.850;2022-09-01T09:38:45;6.47;;;5.70;;
4214;SDS011;2121;48.062;7.850;2022-09-01T09:41:16;7.27;;;5.60;;
4214;SDS011;2121;48.062;7.850;2022-09-01T09:43:51;8.00;;;7.13;;
4214;SDS011;2121;48.062;7.850;2022-09-01T09:46:34;8.67;;;7.23;;
4214;SDS011;2121;48.062;7.850;2022-09-01T09:51:53;8.83;;;6.60;;
4214;SDS011;2121;48.062;7.850;2022-09-01T09:59:47;9.63;;;6.20;;
4214;SDS011;2121;48.062;7.850;2022-09-01T10:04:55;6.27;;;5.67;;
4214;SDS011;2121;48.062;7.850;2022-09-01T10:07:31;6.13;;;5.63;;
4214;SDS011;2121;48.062;7.850;2022-09-01T10:10:02;6.40;;;5.80;;
4214;SDS011;2121;48.062;7.850;2022-09-01T10:12:48;7.50;;;6.80;;
4214;SDS011;2121;48.062;7.850;2022-09-01T10:15:17;7.00;;;6.30;;
4214;SDS011;2121;48.062;7.850;2022-09-01T10:17:48;6.70;;;6.00;;
4214;SDS011;2121;48.062;7.850;2022-09-01T10:20:18;6.37;;;5.77;;
4214;SDS011;2121;48.062;7.850;2022-09-01T10:22:49;6.43;;;5.80;;
4214;SDS011;2121;48.062;7.850;2022-09-01T10:25:18;5.90;;;5.30;;
4214;SDS011;2121;48.062;7.850;2022-09-01T10:27:50;24.37;;;6.37;;
4214;SDS011;2121;48.062;7.850;2022-09-01T10:30:21;5.77;;;5.27;;
4214;SDS011;2121;48.062;7.850;2022-09-01T10:32:55;8.70;;;6.07;;
4214;SDS011;2121;48.062;7.850;2022-09-01T10:35:25;17.10;;;5.93;;
4214;SDS011;2121;48.062;7.850;2022-09-01T10:37:59;7.40;;;6.07;;
4214;SDS011;2121;48.062;7.850;2022-09-01T10:40:35;6.70;;;6.03;;
4214;SDS011;2121;48.062;7.850;2022-09-01T10:48:49;7.63;;;5.17;;
4214;SDS011;2121;48.062;7.850;2022-09-01T10:53:43;5.10;;;4.37;;
4214;SDS011;2121;48.062;7.850;2022-09-01T10:59:03;4.30;;;3.90;;
4214;SDS011;2121;48.062;7.850;2022-09-01T11:04:18;5.40;;;4.90;;
4214;SDS011;2121;48.062;7.850;2022-09-01T11:09:23;6.90;;;4.70;;
4214;SDS011;2121;48.062;7.850;2022-09-01T11:14:53;4.37;;;3.97;;
4214;SDS011;2121;48.062;7.850;2022-09-01T11:17:33;4.77;;;3.90;;
4214;SDS011;2121;48.062;7.850;2022-09-01T11:23:03;4.83;;;4.27;;
4214;SDS011;2121;48.062;7.850;2022-09-01T11:25:49;3.97;;;3.67;;
4214;SDS011;2121;48.062;7.850;2022-09-01T11:33:43;4.33;;;4.00;;
4214;SDS011;2121;48.062;7.850;2022-09-01T11:41:51;3.65;;;3.42;;
4214;SDS011;2121;48.062;7.850;2022-09-01T11:47:33;4.30;;;3.90;;
4214;SDS011;2121;48.062;7.850;2022-09-01T11:50:07;4.60;;;4.30;;
4214;SDS011;2121;48.062;7.850;2022-09-01T11:53:14;4.00;;;3.47;;
4214;SDS011;2121;48.062;7.850;2022-09-01T11:55:48;3.83;;;3.53;;
4214;SDS011;2121;48.062;7.850;2022-09-01T12:00:56;4.10;;;3.80;;
4214;SDS011;2121;48.062;7.850;2022-09-01T12:03:37;7.53;;;3.53;;
4214;SDS011;2121;48.062;7.850;2022-09-01T12:06:04;5.87;;;3.83;;
4214;SDS011;2121;48.062;7.850;2022-09-01T12:08:34;3.83;;;3.53;;
4214;SDS011;2121;48.062;7.850;2022-09-01T12:11:05;3.57;;;3.27;;
4214;SDS011;2121;48.062;7.850;2022-09-01T12:14:03;7.30;;;4.23;;
4214;SDS011;2121;48.062;7.850;2022-09-01T12:16:32;3.27;;;2.97;;
4214;SDS011;2121;48.062;7.850;2022-09-01T12:19:01;3.50;;;3.30;;
4214;SDS011;2121;48.062;7.850;2022-09-01T12:26:43;6.50;;;4.10;;
4214;SDS011;2121;48.062;7.850;2022-09-01T12:29:11;3.33;;;3.03;;
4214;SDS011;2121;48.062;7.850;2022-09-01T12:31:41;3.50;;;3.30;;
4214;SDS011;2121;48.062;7.850;2022-09-01T12:37:02;3.30;;;3.10;;
4214;SDS011;2121;48.062;7.850;2022-09-01T12:39:33;3.30;;;3.10;;
4214;SDS011;2121;48.062;7.850;2022-09-01T12:45:07;3.47;;;3.27;;
4214;SDS011;2121;48.062;7.850;2022-09-01T12:52:44;3.90;;;2.95;;
4214;SDS011;2121;48.062;7.850;2022-09-01T12:55:22;3.10;;;2.90;;
4214;SDS011;2121;48.062;7.850;2022-09-01T12:57:52;3.13;;;2.92;;
4214;SDS011;2121;48.062;7.850;2022-09-01T13:00:24;2.65;;;2.45;;
4214;SDS011;2121;48.062;7.850;2022-09-01T13:07:58;2.60;;;2.35;;
4214;SDS011;2121;48.062;7.850;2022-09-01T13:10:31;3.10;;;2.90;;
4214;SDS011;2121;48.062;7.850;2022-09-01T13:13:02;2.83;;;2.60;;
4214;SDS011;2121;48.062;7.850;2022-09-01T13:15:30;2.50;;;2.30;;
4214;SDS011;2121;48.062;7.850;2022-09-01T13:17:56;2.38;;;2.28;;
4214;SDS011;2121;48.062;7.850;2022-09-01T13:20:22;2.35;;;2.25;;
4214;SDS011;2121;48.062;7.850;2022-09-01T13:22:48;3.40;;;2.15;;
4214;SDS011;2121;48.062;7.850;2022-09-01T13:25:18;2.08;;;1.92;;
4214;SDS011;2121;48.062;7.850;2022-09-01T13:27:46;4.75;;;2.15;;
4214;SDS011;2121;48.062;7.850;2022-09-01T13:30:13;2.10;;;2.00;;
4214;SDS011;2121;48.062;7.850;2022-09-01T13:32:42;1.92;;;1.83;;
4214;SDS011;2121;48.062;7.850;2022-09-01T13:35:10;1.95;;;1.85;;
4214;SDS011;2121;48.062;7.850;2022-09-01T13:37:41;2.13;;;2.03;;
4214;SDS011;2121;48.062;7.850;2022-09-01T13:40:07;3.78;;;3.00;;
4214;SDS011;2121;48.062;7.850;2022-09-01T13:42:39;2.60;;;2.50;;
4214;SDS011;2121;48.062;7.850;2022-09-01T13:45:10;2.20;;;2.10;;
4214;SDS011;2121;48.062;7.850;2022-09-01T13:47:38;2.00;;;1.90;;
4214;SDS011;2121;48.062;7.850;2022-09-01T13:50:08;2.08;;;1.85;;
4214;SDS011;2121;48.062;7.850;2022-09-01T13:53:10;2.25;;;2.15;;
4214;SDS011;2121;48.062;7.850;2022-09-01T13:55:31;1.80;;;1.70;;
4214;SDS011;2121;48.062;7.850;2022-09-01T13:58:00;1.98;;;1.88;;
4214;SDS011;2121;48.062;7.850;2022-09-01T14:00:27;2.47;;;2.25;;
4214;SDS011;2121;48.062;7.850;2022-09-01T14:02:57;3.75;;;2.40;;
4214;SDS011;2121;48.062;7.850;2022-09-01T14:05:29;1.85;;;1.75;;
4214;SDS011;2121;48.062;7.850;2022-09-01T14:07:59;2.20;;;2.10;;
4214;SDS011;2121;48.062;7.850;2022-09-01T14:10:25;3.22;;;2.22;;
4214;SDS011;2121;48.062;7.850;2022-09-01T14:12:53;2.40;;;2.30;;
4214;SDS011;2121;48.062;7.850;2022-09-01T14:15:19;2.60;;;2.50;;
4214;SDS011;2121;48.062;7.850;2022-09-01T14:17:49;2.25;;;2.05;;
4214;SDS011;2121;48.062;7.850;2022-09-01T14:20:18;2.65;;;2.10;;
4214;SDS011;2121;48.062;7.850;2022-09-01T14:22:52;2.72;;;2.17;;
4214;SDS011;2121;48.062;7.850;2022-09-01T14:25:19;10.20;;;2.58;;
4214;SDS011;2121;48.062;7.850;2022-09-01T14:27:47;2.70;;;2.50;;
4214;SDS011;2121;48.062;7.850;2022-09-01T14:30:15;2.55;;;2.17;;
4214;SDS011;2121;48.062;7.850;2022-09-01T14:32:47;2.00;;;1.90;;
4214;SDS011;2121;48.062;7.850;2022-09-01T14:35:15;2.00;;;1.90;;
4214;SDS011;2121;48.062;7.850;2022-09-01T14:37:42;1.77;;;1.67;;
4214;SDS011;2121;48.062;7.850;2022-09-01T14:40:09;2.33;;;2.22;;
4214;SDS011;2121;48.062;7.850;2022-09-01T14:42:41;1.90;;;1.80;;
4214;SDS011;2121;48.062;7.850;2022-09-01T14:45:10;2.00;;;1.90;;
4214;SDS011;2121;48.062;7.850;2022-09-01T14:47:36;4.43;;;1.80;;
4214;SDS011;2121;48.062;7.850;2022-09-01T14:50:04;1.63;;;1.50;;
4214;SDS011;2121;48.062;7.850;2022-09-01T14:52:30;1.98;;;1.88;;
4214;SDS011;2121;48.062;7.850;2022-09-01T14:54:56;1.70;;;1.70;;
4214;SDS011;2121;48.062;7.850;2022-09-01T14:57:28;1.40;;;1.33;;
4214;SDS011;2121;48.062;7.850;2022-09-01T14:59:56;1.42;;;1.38;;
4214;SDS011;2121;48.062;7.850;2022-09-01T15:02:21;1.77;;;1.77;;
4214;SDS011;2121;48.062;7.850;2022-09-01T15:04:49;2.03;;;1.73;;
4214;SDS011;2121;48.062;7.850;2022-09-01T15:07:15;1.35;;;1.35;;
4214;SDS011;2121;48.062;7.850;2022-09-01T15:09:42;1.33;;;1.33;;
4214;SDS011;2121;48.062;7.850;2022-09-01T15:12:07;1.85;;;1.75;;
4214;SDS011;2121;48.062;7.850;2022-09-01T15:14:33;2.05;;;1.85;;
4214;SDS011;2121;48.062;7.850;2022-09-01T15:17:00;1.90;;;1.80;;
4214;SDS011;2121;48.062;7.850;2022-09-01T15:19:26;4.03;;;1.77;;
4214;SDS011;2121;48.062;7.850;2022-09-01T15:21:52;4.75;;;1.67;;
4214;SDS011;2121;48.062;7.850;2022-09-01T15:24:17;1.65;;;1.55;;
4214;SDS011;2121;48.062;7.850;2022-09-01T15:26:43;1.73;;;1.63;;
4214;SDS011;2121;48.062;7.850;2022-09-01T15:29:11;2.50;;;2.40;;
4214;SDS011;2121;48.062;7.850;2022-09-01T15:31:39;2.03;;;1.92;;
4214;SDS011;2121;48.062;7.850;2022-09-01T15:34:06;2.10;;;2.00;;
4214;SDS011;2121;48.062;7.850;2022-09-01T15:36:36;2.05;;;1.65;;
4214;SDS011;2121;48.062;7.850;2022-09-01T15:39:09;2.10;;;1.98;;
4214;SDS011;2121;48.062;7.850;2022-09-01T15:41:35;3.83;;;1.70;;
4214;SDS011;2121;48.062;7.850;2022-09-01T15:44:02;1.77;;;1.67;;
4214;SDS011;2121;48.062;7.850;2022-09-01T15:46:31;1.77;;;1.45;;
4214;SDS011;2121;48.062;7.850;2022-09-01T15:48:59;1.88;;;1.75;;
4214;SDS011;2121;48.062;7.850;2022-09-01T15:51:31;1.67;;;1.67;;
4214;SDS011;2121;48.062;7.850;2022-09-01T15:54:09;1.70;;;1.60;;
4214;SDS011;2121;48.062;7.850;2022-09-01T15:56:44;2.05;;;1.95;;
4214;SDS011;2121;48.062;7.850;2022-09-01T15:59:11;2.60;;;2.50;;
4214;SDS011;2121;48.062;7.850;2022-09-01T16:01:39;1.70;;;1.60;;
4214;SDS011;2121;48.062;7.850;2022-09-01T16:04:09;2.10;;;2.00;;
4214;SDS011;2121;48.062;7.850;2022-09-01T16:06:39;2.15;;;2.05;;
4214;SDS011;2121;48.062;7.850;2022-09-01T16:09:06;1.80;;;1.70;;
4214;SDS011;2121;48.062;7.850;2022-09-01T16:11:33;1.80;;;1.70;;
4214;SDS011;2121;48.062;7.850;2022-09-01T16:14:01;1.80;;;1.80;;
4214;SDS011;2121;48.062;7.850;2022-09-01T16:16:30;1.70;;;1.63;;
4214;SDS011;2121;48.062;7.850;2022-09-01T16:22:37;5.43;;;2.10;;
4214;SDS011;2121;48.062;7.850;2022-09-01T16:28:26;1.70;;;1.60;;
4214;SDS011;2121;48.062;7.850;2022-09-01T16:31:06;3.53;;;1.77;;
4214;SDS011;2121;48.062;7.850;2022-09-01T16:33:53;1.92;;;1.85;;
4214;SDS011;2121;48.062;7.850;2022-09-01T16:56:08;6.07;;;1.70;;
4214;SDS011;2121;48.062;7.850;2022-09-01T17:02:17;2.47;;;2.28;;
4214;SDS011;2121;48.062;7.850;2022-09-01T17:05:17;3.05;;;1.90;;
4214;SDS011;2121;48.062;7.850;2022-09-01T17:07:51;1.83;;;1.73;;
4214;SDS011;2121;48.062;7.850;2022-09-01T17:10:42;3.85;;;2.30;;
4214;SDS011;2121;48.062;7.850;2022-09-01T17:13:24;2.20;;;2.10;;
4214;SDS011;2121;48.062;7.850;2022-09-01T17:16:03;2.17;;;2.08;;
4214;SDS011;2121;48.062;7.850;2022-09-01T17:18:40;2.40;;;2.10;;
4214;SDS011;2121;48.062;7.850;2022-09-01T17:21:29;1.95;;;1.70;;
4214;SDS011;2121;48.062;7.850;2022-09-01T17:26:59;2.47;;;2.28;;
4214;SDS011;2121;48.062;7.850;2022-09-01T17:32:31;2.00;;;1.90;;
4214;SDS011;2121;48.062;7.850;2022-09-01T17:52:22;3.00;;;2.80;;
4214;SDS011;2121;48.062;7.850;2022-09-01T17:55:29;2.83;;;2.63;;
4214;SDS011;2121;48.062;7.850;2022-09-01T18:04:30;3.10;;;2.90;;
4214;SDS011;2121;48.062;7.850;2022-09-01T18:07:14;3.47;;;2.60;;
4214;SDS011;2121;48.062;7.850;2022-09-01T18:09:55;2.90;;;2.50;;
4214;SDS011;2121;48.062;7.850;2022-09-01T18:12:25;4.00;;;3.63;;
4214;SDS011;2121;48.062;7.850;2022-09-01T18:15:07;2.67;;;2.47;;
4214;SDS011;2121;48.062;7.850;2022-09-01T18:17:38;9.43;;;3.33;;
4214;SDS011;2121;48.062;7.850;2022-09-01T18:20:28;3.40;;;3.10;;
4214;SDS011;2121;48.062;7.850;2022-09-01T18:23:10;3.20;;;2.90;;